Time;durP1;ratioP1;P1;durP2;ratioP2;P2;SDS_P1;SDS_P2;PMS_P1;PMS_P2;Temp;Humidity;BMP_temperature;BMP_pressure;BME280_temperature;BME280_humidity;BME280_pressure;Samples;Min_cycle;Max_cycle;Signal;HPM_P1;HPM_P2
2021/04/06 00:02:15;;;;;;;7.13;2.30;;;;;;;20.80;36.44;100536.56;5052147;28;20043;-75
2021/04/06 00:04:47;;;;;;;8.98;2.95;;;;;;;20.82;36.50;100532.03;5049324;28;20045;-77
2021/04/06 00:07:17;;;;;;;8.38;3.15;;;;;;;20.79;36.81;100532.13;5051872;28;20039;-75
2021/04/06 00:09:50;;;;;;;6.53;2.88;;;;;;;20.77;37.23;100525.91;5051527;28;20045;-76
2021/04/06 00:12:20;;;;;;;7.45;2.50;;;;;;;20.75;37.25;100514.34;5051683;28;20041;-76
2021/04/06 00:14:49;;;;;;;6.43;2.38;;;;;;;20.76;37.54;100497.31;5051645;28;20119;-76
2021/04/06 00:17:18;;;;;;;7.43;2.30;;;;;;;20.79;37.16;100509.78;5051313;28;20041;-76
2021/04/06 00:19:47;;;;;;;8.35;2.92;;;;;;;20.78;36.95;100497.28;5050905;28;20041;-76
2021/04/06 00:22:17;;;;;;;7.50;2.25;;;;;;;20.84;36.65;100492.63;5043331;28;20043;-77
2021/04/06 00:24:49;;;;;;;15.32;3.35;;;;;;;20.92;36.20;100489.69;5045559;28;20048;-76
2021/04/06 00:27:18;;;;;;;7.22;2.40;;;;;;;20.95;35.65;100460.06;5050842;28;20036;-77
2021/04/06 00:29:49;;;;;;;9.00;2.60;;;;;;;21.01;35.94;100467.91;5051476;28;20124;-75
2021/04/06 00:32:19;;;;;;;5.43;2.03;;;;;;;21.06;35.88;100474.03;5051697;28;20030;-76
2021/04/06 00:34:47;;;;;;;5.97;2.25;;;;;;;21.07;35.98;100470.41;5051626;28;20041;-77
2021/04/06 00:37:16;;;;;;;9.82;2.45;;;;;;;21.05;35.77;100470.47;5045552;28;20091;-75
2021/04/06 00:39:44;;;;;;;9.32;2.95;;;;;;;21.03;36.28;100456.22;5034124;28;20029;-76
2021/04/06 00:42:15;;;;;;;11.48;2.30;;;;;;;21.04;36.23;100454.41;5050983;28;20041;-75
2021/04/06 00:44:47;;;;;;;13.10;2.90;;;;;;;21.07;35.67;100436.38;5050837;28;20401;-77
2021/04/06 00:47:15;;;;;;;6.80;2.28;;;;;;;21.15;35.40;100414.66;5051137;28;20037;-76
2021/04/06 00:49:44;;;;;;;8.20;2.58;;;;;;;21.20;35.42;100434.19;5051262;28;20572;-77
2021/04/06 00:52:12;;;;;;;7.72;2.63;;;;;;;21.19;35.63;100440.53;5059036;28;20057;-76
2021/04/06 00:54:41;;;;;;;7.93;2.20;;;;;;;21.18;35.94;100432.53;5051898;28;20040;-77
2021/04/06 00:57:08;;;;;;;10.25;2.20;;;;;;;21.14;36.06;100434.38;5051060;28;20090;-75
2021/04/06 00:59:36;;;;;;;9.27;2.22;;;;;;;21.10;36.30;100408.56;5051053;28;20044;-77
2021/04/06 01:02:05;;;;;;;7.35;2.55;;;;;;;21.06;36.93;100423.03;5049370;28;20484;-75
2021/04/06 01:04:35;;;;;;;10.02;2.42;;;;;;;20.99;37.36;100421.47;5051084;28;20049;-76
2021/04/06 01:07:06;;;;;;;11.80;2.50;;;;;;;20.90;37.79;100446.78;5047360;28;20087;-75
2021/04/06 01:09:40;;;;;;;6.25;2.13;;;;;;;20.84;38.17;100420.16;5046922;28;20083;-76
2021/04/06 01:12:09;;;;;;;7.68;2.15;;;;;;;20.80;38.04;100414.94;5051131;28;20443;-76
2021/04/06 01:14:39;;;;;;;10.52;2.25;;;;;;;20.81;38.11;100408.63;5050341;28;20049;-76
2021/04/06 01:17:08;;;;;;;6.68;2.28;;;;;;;20.83;37.73;100393.38;5050650;28;20040;-76
2021/04/06 01:19:35;;;;;;;8.48;2.25;;;;;;;20.86;37.31;100394.16;5030677;28;20073;-76
2021/04/06 01:22:05;;;;;;;6.25;1.95;;;;;;;20.89;37.14;100387.78;5043272;28;20033;-76
2021/04/06 01:24:34;;;;;;;5.68;2.25;;;;;;;20.90;36.64;100392.25;5045061;28;20423;-76
2021/04/06 01:27:01;;;;;;;5.03;2.13;;;;;;;20.93;36.28;100368.00;5050157;28;20041;-76
2021/04/06 01:29:29;;;;;;;5.97;2.17;;;;;;;20.99;35.56;100373.16;5050761;28;20393;-75
2021/04/06 01:31:57;;;;;;;11.75;2.65;;;;;;;21.04;35.58;100387.31;5050299;28;20037;-75
2021/04/06 01:34:25;;;;;;;6.43;2.17;;;;;;;21.08;34.90;100372.84;5050509;28;20036;-76
2021/04/06 01:36:53;;;;;;;7.30;1.95;;;;;;;21.13;34.87;100370.03;5051243;28;20576;-76
2021/04/06 01:39:23;;;;;;;6.68;2.35;;;;;;;21.15;34.33;100352.03;5047012;28;20060;-76
2021/04/06 01:41:55;;;;;;;4.10;1.77;;;;;;;21.21;34.13;100357.22;5038747;28;20120;-76
2021/04/06 01:44:23;;;;;;;10.27;3.20;;;;;;;21.19;33.67;100349.25;5050438;28;20409;-76
2021/04/06 01:46:51;;;;;;;10.98;2.97;;;;;;;21.20;33.74;100342.91;5050264;28;20378;-75
2021/04/06 01:49:19;;;;;;;6.75;1.92;;;;;;;21.18;33.96;100352.84;5050361;28;20400;-76
2021/04/06 01:51:47;;;;;;;10.63;1.75;;;;;;;21.21;33.99;100349.16;5050714;28;20385;-75
2021/04/06 01:54:16;;;;;;;7.32;2.03;;;;;;;21.22;33.72;100350.94;5050070;28;20029;-76
2021/04/06 01:56:48;;;;;;;7.68;1.92;;;;;;;21.28;33.24;100322.06;5044023;28;20041;-77
2021/04/06 01:59:21;;;;;;;9.32;2.05;;;;;;;21.30;33.48;100348.84;5050014;28;20088;-77
2021/04/06 02:01:52;;;;;;;9.50;2.25;;;;;;;21.33;33.03;100348.75;5050997;28;20041;-76
2021/04/06 02:04:24;;;;;;;7.57;2.03;;;;;;;21.36;32.91;100345.97;5050429;28;20044;-76
2021/04/06 02:06:51;;;;;;;8.65;2.22;;;;;;;21.34;32.69;100346.00;5049335;28;20037;-75
2021/04/06 02:09:20;;;;;;;5.45;1.73;;;;;;;21.34;33.12;100348.69;5050574;28;20053;-76
2021/04/06 02:11:48;;;;;;;6.55;2.22;;;;;;;21.33;33.05;100354.97;5038169;28;20133;-76
2021/04/06 02:14:17;;;;;;;8.07;2.30;;;;;;;21.35;33.05;100353.13;5047903;28;20041;-78
2021/04/06 02:16:50;;;;;;;9.02;2.03;;;;;;;21.32;33.17;100361.31;5050217;28;20041;-76
2021/04/06 02:19:25;;;;;;;6.82;1.83;;;;;;;21.32;33.29;100355.94;5053515;28;20641;-76
2021/04/06 02:21:54;;;;;;;6.95;2.40;;;;;;;21.36;32.75;100352.19;5053519;28;20036;-76
2021/04/06 02:24:30;;;;;;;11.85;2.38;;;;;;;21.34;32.79;100363.91;5054130;28;20358;-76
2021/04/06 02:26:59;;;;;;;10.00;2.00;;;;;;;21.31;33.10;100351.50;5048270;28;20045;-76
2021/04/06 02:29:28;;;;;;;7.22;2.00;;;;;;;21.27;33.14;100360.56;5053003;28;20066;-75
2021/04/06 02:31:55;;;;;;;12.40;2.80;;;;;;;21.26;33.42;100369.59;5053313;28;20456;-77
2021/04/06 02:34:22;;;;;;;7.47;2.40;;;;;;;21.20;33.76;100355.50;5053948;28;20501;-76
2021/04/06 02:36:49;;;;;;;7.32;2.00;;;;;;;21.14;34.22;100364.56;5052750;28;20041;-76
2021/04/06 02:39:17;;;;;;;8.95;1.90;;;;;;;21.06;34.05;100358.63;5053537;28;20029;-75
2021/04/06 02:41:44;;;;;;;6.57;2.33;;;;;;;21.06;34.14;100348.75;5054011;28;20041;-76
2021/04/06 02:44:18;;;;;;;6.80;2.00;;;;;;;21.11;33.94;100371.88;5047466;28;20029;-75
2021/04/06 02:46:50;;;;;;;8.13;2.13;;;;;;;21.06;34.56;100362.19;5052975;28;20502;-76
2021/04/06 02:49:18;;;;;;;8.15;2.33;;;;;;;21.01;33.96;100369.47;5052439;28;20122;-76
2021/04/06 02:51:45;;;;;;;7.20;2.05;;;;;;;21.04;33.46;100385.50;5052622;28;20590;-75
2021/04/06 02:54:17;;;;;;;3.47;1.48;;;;;;;21.01;33.88;100366.78;5053729;28;20044;-76
2021/04/06 02:56:44;;;;;;;9.02;1.75;;;;;;;21.02;33.79;100373.94;5053057;28;20033;-76
2021/04/06 02:59:16;;;;;;;9.00;1.83;;;;;;;21.01;34.32;100384.72;5044413;28;20037;-75
2021/04/06 03:01:43;;;;;;;7.93;1.90;;;;;;;20.96;34.09;100379.50;5053669;28;20408;-75
2021/04/06 03:04:23;;;;;;;9.35;1.98;;;;;;;21.01;34.15;100392.75;5053309;28;20039;-75
2021/04/06 03:06:51;;;;;;;5.85;1.85;;;;;;;20.94;33.97;100407.31;5053353;28;20121;-75
2021/04/06 03:09:20;;;;;;;8.32;2.05;;;;;;;20.93;34.00;100401.09;5053092;28;20037;-76
2021/04/06 03:11:48;;;;;;;7.07;2.22;;;;;;;20.94;34.00;100402.81;5052458;28;20055;-76
2021/04/06 03:14:16;;;;;;;9.57;1.90;;;;;;;20.91;34.33;100413.66;5050744;28;20045;-75
2021/04/06 03:16:43;;;;;;;6.72;1.60;;;;;;;20.88;34.11;100413.75;5037221;28;20043;-76
2021/04/06 03:19:10;;;;;;;9.88;1.88;;;;;;;20.84;34.32;100424.66;5052756;28;20055;-76
2021/04/06 03:21:39;;;;;;;7.75;1.80;;;;;;;20.82;34.50;100426.50;5053277;28;20041;-75
2021/04/06 03:24:08;;;;;;;6.32;1.52;;;;;;;20.76;34.76;100435.63;5053012;28;20539;-75
2021/04/06 03:26:36;;;;;;;10.70;2.03;;;;;;;20.77;34.61;100444.53;5052802;28;20033;-76
2021/04/06 03:29:04;;;;;;;8.68;2.00;;;;;;;20.74;34.59;100456.28;5051700;28;20053;-75
2021/04/06 03:31:33;;;;;;;8.40;1.80;;;;;;;20.72;34.82;100476.00;5037316;28;20041;-75
2021/04/06 03:34:01;;;;;;;7.00;2.33;;;;;;;20.66;35.11;100469.91;5048996;28;20045;-75
2021/04/06 03:36:30;;;;;;;6.97;1.70;;;;;;;20.61;35.45;100457.56;5051955;28;20164;-75
2021/04/06 03:39:01;;;;;;;5.15;1.23;;;;;;;20.60;35.21;100453.13;5052392;28;20086;-75
2021/04/06 03:41:30;;;;;;;8.50;2.10;;;;;;;20.56;35.42;100440.72;5052412;28;20136;-75
2021/04/06 03:44:04;;;;;;;6.90;2.00;;;;;;;20.50;35.81;100438.22;5051878;28;20033;-76
2021/04/06 03:46:31;;;;;;;12.27;2.45;;;;;;;20.46;35.64;100432.09;5046278;28;20094;-77
2021/04/06 03:49:13;;;;;;;9.00;2.08;;;;;;;20.45;35.75;100426.75;5052034;28;20049;-75
2021/04/06 03:51:48;;;;;;;7.45;1.70;;;;;;;20.48;35.11;100427.53;5053010;28;20048;-75
2021/04/06 03:54:38;;;;;;;6.70;1.65;;;;;;;20.53;35.24;100414.88;5051713;28;20516;-76
2021/04/06 03:57:32;;;;;;;5.70;1.92;;;;;;;20.52;34.82;100410.44;5051992;28;20041;-75
2021/04/06 04:00:00;;;;;;;7.30;2.15;;;;;;;20.51;34.72;100399.75;5051958;28;20122;-76
2021/04/06 04:02:27;;;;;;;4.82;1.40;;;;;;;20.47;34.64;100396.31;5035792;28;20098;-76
2021/04/06 04:04:54;;;;;;;4.88;1.25;;;;;;;20.47;34.55;100400.78;5052135;28;20047;-75
2021/04/06 04:07:21;;;;;;;4.88;1.42;;;;;;;20.47;34.33;100404.34;5050638;28;20680;-77
2021/04/06 04:09:49;;;;;;;4.93;1.70;;;;;;;20.52;34.41;100410.44;5051696;28;20600;-76
2021/04/06 04:12:16;;;;;;;3.47;1.40;;;;;;;20.56;34.55;100403.16;5051976;28;20525;-76
2021/04/06 04:14:43;;;;;;;11.43;2.72;;;;;;;20.56;34.47;100422.81;5051802;28;20120;-76
2021/04/06 04:17:10;;;;;;;6.03;1.60;;;;;;;20.58;34.82;100420.97;5051068;28;20043;-75
2021/04/06 04:19:38;;;;;;;6.93;1.83;;;;;;;20.53;34.75;100430.97;5032642;28;20073;-76
2021/04/06 04:22:05;;;;;;;10.23;2.88;;;;;;;20.53;35.02;100447.06;5042417;28;20060;-77
2021/04/06 04:24:32;;;;;;;5.70;2.13;;;;;;;20.53;35.01;100443.50;5051131;28;20052;-75
2021/04/06 04:27:00;;;;;;;12.20;1.65;;;;;;;20.56;34.91;100446.09;5051870;28;20087;-76
2021/04/06 04:29:27;;;;;;;9.82;1.60;;;;;;;20.56;34.83;100455.00;5050662;28;20041;-76
2021/04/06 04:31:54;;;;;;;12.13;2.47;;;;;;;20.54;35.20;100453.31;5051872;28;20059;-75
2021/04/06 04:34:21;;;;;;;8.63;2.40;;;;;;;20.52;35.26;100468.56;5041131;28;20025;-76
2021/04/06 04:36:48;;;;;;;7.65;2.60;;;;;;;20.54;35.16;100477.47;5041869;28;20112;-76
2021/04/06 04:39:15;;;;;;;6.47;1.73;;;;;;;20.53;35.64;100476.56;5050724;28;20518;-75
2021/04/06 04:41:42;;;;;;;7.00;2.42;;;;;;;20.50;35.93;100481.13;5049888;28;20038;-76
2021/04/06 04:44:11;;;;;;;5.57;1.73;;;;;;;20.43;36.50;100488.47;5071328;28;20060;-76
2021/04/06 04:46:38;;;;;;;9.70;2.03;;;;;;;20.41;36.57;100502.88;5056607;28;20044;-75
2021/04/06 04:49:05;;;;;;;7.88;1.85;;;;;;;20.47;35.45;100508.94;5048225;28;20120;-76
2021/04/06 04:51:32;;;;;;;9.93;2.17;;;;;;;20.57;34.93;100513.09;5049009;28;20481;-76
2021/04/06 04:53:59;;;;;;;9.57;2.67;;;;;;;20.68;35.22;100520.81;5050789;28;20120;-76
2021/04/06 04:56:26;;;;;;;7.50;2.55;;;;;;;20.67;35.80;100506.56;5050984;28;20123;-77
2021/04/06 04:58:53;;;;;;;5.60;2.85;;;;;;;20.63;36.56;100520.09;5050790;28;20037;-76
2021/04/06 05:01:22;;;;;;;5.13;2.00;;;;;;;20.53;37.43;100513.25;5050753;28;20041;-76
2021/04/06 05:03:49;;;;;;;7.50;2.42;;;;;;;20.51;37.92;100512.41;5050824;28;20071;-76
2021/04/06 05:06:16;;;;;;;8.15;2.28;;;;;;;20.49;38.19;100522.28;5044246;28;20035;-74
2021/04/06 05:08:43;;;;;;;9.95;3.40;;;;;;;20.48;38.66;100516.03;5051385;28;20041;-76
2021/04/06 05:11:10;;;;;;;11.32;2.40;;;;;;;20.50;39.05;100513.31;5050630;28;20389;-75
2021/04/06 05:13:37;;;;;;;10.57;2.33;;;;;;;20.49;39.61;100503.50;5050444;28;20069;-77
2021/04/06 05:16:05;;;;;;;8.35;2.50;;;;;;;20.55;39.80;100496.16;5050743;28;20037;-74
2021/04/06 05:18:33;;;;;;;6.28;2.22;;;;;;;20.59;40.13;100489.81;5050134;28;20045;-75
2021/04/06 05:21:00;;;;;;;7.38;2.58;;;;;;;20.56;40.34;100492.56;5047349;28;20037;-76
2021/04/06 05:23:27;;;;;;;12.35;2.95;;;;;;;20.61;40.67;100495.97;5049478;28;20041;-75
2021/04/06 05:25:55;;;;;;;8.43;2.60;;;;;;;20.58;41.16;100485.34;5059302;28;20043;-75
2021/04/06 05:28:22;;;;;;;14.60;3.63;;;;;;;20.61;40.99;100489.75;5055185;28;20048;-76
2021/04/06 05:30:49;;;;;;;9.57;2.95;;;;;;;20.66;40.92;100482.44;5048510;28;20033;-75
2021/04/06 05:33:16;;;;;;;13.90;3.50;;;;;;;20.72;41.21;100500.16;5048591;28;20029;-76
2021/04/06 05:35:45;;;;;;;12.50;2.88;;;;;;;20.77;41.44;100490.16;5050666;28;20048;-76
2021/04/06 05:38:12;;;;;;;13.15;3.10;;;;;;;20.87;41.24;100462.13;5036084;28;20059;-76
2021/04/06 05:40:38;;;;;;;8.90;3.28;;;;;;;20.97;41.18;100468.94;5050233;28;20048;-77
2021/04/06 05:43:05;;;;;;;9.60;3.05;;;;;;;21.05;41.38;100474.97;5050148;28;20045;-76
2021/04/06 05:45:33;;;;;;;10.70;3.50;;;;;;;21.09;41.63;100465.88;5050182;28;20041;-76
2021/04/06 05:48:04;;;;;;;8.32;3.10;;;;;;;21.15;41.67;100454.03;5050262;28;20049;-76
2021/04/06 05:50:33;;;;;;;6.43;2.45;;;;;;;21.25;41.27;100445.69;5049919;28;20049;-76
2021/04/06 05:53:02;;;;;;;11.02;3.58;;;;;;;21.30;41.31;100442.84;5035048;28;20151;-74
2021/04/06 05:55:29;;;;;;;9.63;2.78;;;;;;;21.23;41.92;100442.16;5043433;28;20046;-74
2021/04/06 05:57:56;;;;;;;11.52;3.60;;;;;;;21.21;42.34;100441.34;5041518;28;20713;-75
2021/04/06 06:00:24;;;;;;;8.82;3.30;;;;;;;21.36;42.27;100434.56;5052941;28;20366;-76
2021/04/06 06:02:52;;;;;;;13.95;3.75;;;;;;;21.64;42.02;100427.34;5040383;28;20052;-75
2021/04/06 06:05:19;;;;;;;16.10;3.83;;;;;;;21.85;41.96;100418.50;5034849;28;20358;-75
2021/04/06 06:07:47;;;;;;;11.70;3.80;;;;;;;21.91;42.48;100438.91;5046454;28;20052;-75
2021/04/06 06:10:37;;;;;;;14.10;3.72;;;;;;;22.00;42.53;100441.28;5041820;28;20038;-75
2021/04/06 06:13:18;;;;;;;13.63;4.03;;;;;;;22.13;42.47;100421.06;5031915;28;20148;-74
2021/04/06 06:16:11;;;;;;;12.15;3.65;;;;;;;22.48;42.39;100426.94;5041152;28;20103;-76
2021/04/06 06:18:53;;;;;;;14.88;4.43;;;;;;;22.67;42.45;100422.59;5052667;28;20128;-75
2021/04/06 06:21:21;;;;;;;9.88;3.10;;;;;;;22.66;42.64;100394.78;5043211;28;20037;-75
2021/04/06 06:23:48;;;;;;;12.50;4.25;;;;;;;22.88;41.84;100396.66;5045086;28;20033;-74
2021/04/06 06:26:20;;;;;;;14.60;4.53;;;;;;;22.98;41.65;100390.81;5048091;28;20389;-73
2021/04/06 06:29:12;;;;;;;10.70;2.97;;;;;;;23.04;41.88;100398.66;5053147;28;20045;-73
2021/04/06 06:31:45;;;;;;;19.05;4.53;;;;;;;23.09;41.63;100409.25;5037080;28;20096;-73
2021/04/06 06:34:31;;;;;;;17.48;3.92;;;;;;;23.10;41.64;100394.84;5035879;28;20412;-74
2021/04/06 06:37:15;;;;;;;15.80;3.42;;;;;;;23.12;41.21;100403.72;5034263;28;20041;-75
2021/04/06 06:39:49;;;;;;;7.28;2.85;;;;;;;23.21;41.04;100405.16;5034591;28;20038;-75
2021/04/06 06:42:19;;;;;;;10.93;3.33;;;;;;;23.59;41.13;100399.03;5035753;28;20563;-75
2021/04/06 06:44:46;;;;;;;11.82;3.35;;;;;;;23.97;40.13;100385.66;5039279;28;20068;-75
2021/04/06 06:47:15;;;;;;;11.60;4.43;;;;;;;24.19;39.50;100394.56;5043415;28;20490;-75
2021/04/06 06:49:44;;;;;;;12.75;4.32;;;;;;;24.26;39.34;100398.72;5038921;28;20428;-76
2021/04/06 06:52:34;;;;;;;11.52;3.63;;;;;;;24.27;39.36;100400.47;5036920;28;20172;-76
2021/04/06 06:55:15;;;;;;;13.32;4.05;;;;;;;24.34;39.83;100398.38;5036021;28;20040;-75
2021/04/06 06:57:43;;;;;;;14.65;4.82;;;;;;;24.38;39.75;100408.06;5033229;28;20435;-76
2021/04/06 07:00:13;;;;;;;9.65;3.33;;;;;;;24.45;39.85;100407.69;5045964;28;20107;-74
2021/04/06 07:02:41;;;;;;;9.52;3.28;;;;;;;24.65;39.74;100416.66;5044194;28;20477;-75
2021/04/06 07:05:20;;;;;;;11.68;5.03;;;;;;;24.78;39.28;100383.59;5051999;28;20136;-75
2021/04/06 07:07:57;;;;;;;11.55;3.50;;;;;;;24.79;38.97;100370.97;5052508;28;20041;-75
2021/04/06 07:10:27;;;;;;;11.43;4.07;;;;;;;24.80;39.06;100384.41;5047385;28;20049;-76
2021/04/06 07:12:59;;;;;;;14.20;4.03;;;;;;;25.02;38.75;100381.53;5036046;28;20094;-76
2021/04/06 07:15:27;;;;;;;15.80;4.00;;;;;;;25.11;38.73;100381.09;5033038;28;20524;-76
2021/04/06 07:18:03;;;;;;;12.85;3.47;;;;;;;25.26;38.35;100358.69;5040643;28;20056;-75
2021/04/06 07:20:32;;;;;;;15.13;4.05;;;;;;;25.26;37.91;100374.03;5053509;28;20037;-75
2021/04/06 07:23:03;;;;;;;9.52;2.95;;;;;;;25.22;37.32;100354.38;5045552;28;20033;-76
2021/04/06 07:25:31;;;;;;;12.20;3.60;;;;;;;25.32;37.20;100371.91;5052820;28;20030;-75
2021/04/06 07:28:01;;;;;;;14.48;3.85;;;;;;;25.35;36.32;100385.22;5048536;28;20041;-77
2021/04/06 07:30:28;;;;;;;10.00;3.25;;;;;;;25.36;36.11;100330.22;5034059;28;20114;-74
2021/04/06 07:32:56;;;;;;;14.70;3.53;;;;;;;25.46;36.01;100364.91;5032654;28;20064;-75
2021/04/06 07:35:24;;;;;;;10.50;3.15;;;;;;;25.59;36.36;100358.81;5032997;28;20439;-76
2021/04/06 07:37:51;;;;;;;7.88;2.85;;;;;;;25.67;35.76;100334.91;5032713;28;20029;-76
2021/04/06 07:40:21;;;;;;;10.63;3.33;;;;;;;25.64;35.73;100302.63;5052120;28;20069;-77
2021/04/06 07:42:49;;;;;;;10.90;2.80;;;;;;;25.67;35.95;100359.25;5048877;28;20084;-76
2021/04/06 07:45:44;;;;;;;11.80;3.88;;;;;;;25.72;36.29;100324.75;5039055;28;20045;-75
2021/04/06 07:48:13;;;;;;;18.98;3.83;;;;;;;25.76;36.68;100342.53;5032649;28;20440;-76
2021/04/06 07:50:44;;;;;;;11.57;3.75;;;;;;;25.94;36.22;100339.78;5034724;28;20046;-76
2021/04/06 07:53:26;;;;;;;8.32;2.80;;;;;;;26.14;36.30;100328.75;5043066;28;20029;-76
2021/04/06 07:55:53;;;;;;;12.52;3.83;;;;;;;26.17;36.39;100310.53;5047831;28;20114;-75
2021/04/06 07:58:47;;;;;;;16.27;3.53;;;;;;;26.33;37.10;100307.84;5049755;28;20063;-75
2021/04/06 08:01:17;;;;;;;18.70;3.45;;;;;;;26.44;36.68;100277.47;5036955;28;20106;-77
2021/04/06 08:04:05;;;;;;;13.90;4.15;;;;;;;26.67;36.13;100271.56;5031423;28;20511;-76
2021/04/06 08:06:45;;;;;;;8.50;3.42;;;;;;;26.80;36.32;100244.63;5041413;28;20049;-76
2021/04/06 08:09:37;;;;;;;13.48;3.67;;;;;;;27.07;35.99;100234.88;5036964;28;20644;-76
2021/04/06 08:12:06;;;;;;;13.30;3.67;;;;;;;27.59;34.61;100224.41;5042190;28;20521;-76
2021/04/06 08:14:36;;;;;;;11.15;3.72;;;;;;;28.14;33.06;100202.75;5032806;28;20091;-75
2021/04/06 08:17:39;;;;;;;16.73;5.93;;;;;;;28.44;30.51;100197.09;5042035;28;20086;-77
2021/04/06 08:20:16;;;;;;;17.52;4.78;;;;;;;28.59;30.25;100186.19;5038801;28;20049;-77
2021/04/06 08:22:50;;;;;;;14.88;4.00;;;;;;;28.72;29.61;100220.56;5035639;28;20040;-75
2021/04/06 08:25:50;;;;;;;16.65;3.83;;;;;;;28.72;28.84;100187.94;5032856;28;20065;-75
2021/04/06 08:28:41;;;;;;;14.88;4.70;;;;;;;28.59;28.23;100211.50;5051713;28;20059;-77
2021/04/06 08:31:32;;;;;;;18.38;4.22;;;;;;;28.61;28.43;100236.72;5047980;28;20403;-75
2021/04/06 08:34:40;;;;;;;17.33;3.78;;;;;;;28.51;28.66;100241.03;5047704;28;20037;-76
2021/04/06 08:37:18;;;;;;;13.75;4.15;;;;;;;28.31;30.65;100265.91;5048825;28;20132;-75
2021/04/06 08:39:46;;;;;;;14.23;3.97;;;;;;;28.13;31.55;100281.53;5032213;28;20064;-77
2021/04/06 08:42:16;;;;;;;14.38;4.65;;;;;;;28.10;32.35;100284.44;5031360;28;20068;-75
2021/04/06 08:44:59;;;;;;;15.43;3.35;;;;;;;28.32;32.96;100324.69;5031676;28;20040;-76
2021/04/06 08:47:44;;;;;;;13.32;4.20;;;;;;;28.07;34.04;100326.25;5031424;28;20049;-77
2021/04/06 08:50:17;;;;;;;15.35;4.45;;;;;;;27.81;35.14;100321.59;5049891;28;20452;-77
2021/04/06 08:52:46;;;;;;;16.63;4.53;;;;;;;27.59;35.52;100338.31;5049019;28;20135;-76
2021/04/06 08:55:16;;;;;;;16.42;3.95;;;;;;;27.57;35.49;100328.56;5051352;28;20496;-76
2021/04/06 08:57:43;;;;;;;15.68;4.45;;;;;;;27.56;35.14;100333.09;5049915;28;20033;-76
2021/04/06 09:00:13;;;;;;;15.00;5.38;;;;;;;27.41;36.12;100339.41;5047471;28;20406;-78
2021/04/06 09:02:41;;;;;;;13.35;4.97;;;;;;;27.32;37.16;100330.00;5031204;28;20061;-76
2021/04/06 09:05:10;;;;;;;16.75;5.65;;;;;;;27.18;37.70;100331.78;5034596;28;20140;-76
2021/04/06 09:07:39;;;;;;;16.73;5.55;;;;;;;27.08;38.06;100308.91;5046994;28;20048;-75
2021/04/06 09:10:11;;;;;;;14.32;5.03;;;;;;;27.05;38.02;100322.63;5040015;28;20500;-76
2021/04/06 09:12:41;;;;;;;13.48;4.72;;;;;;;27.02;38.08;100296.63;5038542;28;20037;-75
2021/04/06 09:15:11;;;;;;;15.95;5.13;;;;;;;26.96;37.85;100311.41;5045545;28;20068;-75
2021/04/06 09:17:39;;;;;;;14.73;5.78;;;;;;;27.01;38.19;100299.41;5045020;28;20048;-75
2021/04/06 09:20:13;;;;;;;17.98;5.55;;;;;;;27.13;37.35;100328.47;5035462;28;20026;-76
2021/04/06 09:22:40;;;;;;;15.32;4.75;;;;;;;27.06;38.08;100319.84;5041138;28;20060;-77
2021/04/06 09:25:17;;;;;;;15.40;6.15;;;;;;;27.10;37.30;100316.00;5027133;28;20158;-75
2021/04/06 09:27:52;;;;;;;16.25;5.47;;;;;;;27.12;37.19;100295.06;5043218;28;20130;-75
2021/04/06 09:30:31;;;;;;;13.80;4.82;;;;;;;27.14;35.95;100286.88;5047878;28;20029;-75
2021/04/06 09:32:59;;;;;;;12.68;4.97;;;;;;;27.18;36.55;100299.25;5048819;28;20521;-76
2021/04/06 09:35:26;;;;;;;11.75;4.15;;;;;;;27.23;37.33;100276.34;5044331;28;20041;-76
2021/04/06 09:37:54;;;;;;;19.10;5.65;;;;;;;27.43;37.00;100250.72;5047050;28;20041;-79
2021/04/06 09:40:31;;;;;;;12.60;4.82;;;;;;;27.53;37.30;100278.16;5048215;28;20037;-76
2021/04/06 09:42:59;;;;;;;14.55;4.43;;;;;;;27.68;37.50;100269.94;5034896;28;20033;-75
2021/04/06 09:45:27;;;;;;;13.95;4.65;;;;;;;27.74;36.89;100295.81;5040672;28;20072;-74
2021/04/06 09:47:54;;;;;;;18.75;5.70;;;;;;;27.60;37.54;100283.09;5031172;28;20117;-78
2021/04/06 09:50:23;;;;;;;19.88;4.95;;;;;;;27.35;38.11;100278.31;5036725;28;20049;-77
2021/04/06 09:52:50;;;;;;;18.52;6.03;;;;;;;27.37;38.44;100267.38;5033770;28;20059;-78
2021/04/06 09:55:20;;;;;;;19.50;6.30;;;;;;;27.42;38.12;100276.09;5046754;28;20049;-77
2021/04/06 09:57:52;;;;;;;21.67;6.40;;;;;;;27.20;38.69;100260.25;5034943;28;20076;-77
2021/04/06 10:00:22;;;;;;;15.02;5.70;;;;;;;27.15;39.26;100250.66;5032683;28;20041;-76
2021/04/06 10:03:05;;;;;;;17.90;6.32;;;;;;;27.38;39.49;100253.69;5031480;28;20056;-75
2021/04/06 10:05:33;;;;;;;16.60;5.20;;;;;;;27.48;39.17;100270.28;5048112;28;20098;-73
2021/04/06 10:08:00;;;;;;;16.10;5.68;;;;;;;27.31;39.24;100271.31;5032829;28;20053;-74
2021/04/06 10:10:30;;;;;;;19.65;6.32;;;;;;;27.22;39.22;100263.75;5035344;28;20049;-73
2021/04/06 10:12:59;;;;;;;16.60;6.25;;;;;;;27.26;38.41;100240.91;5032820;28;20033;-74
2021/04/06 10:15:32;;;;;;;15.73;5.15;;;;;;;27.27;38.32;100245.38;5038247;28;20056;-73
2021/04/06 10:18:08;;;;;;;14.07;4.47;;;;;;;27.38;37.78;100241.97;5030522;28;20056;-77
2021/04/06 10:20:42;;;;;;;16.10;5.55;;;;;;;27.42;37.05;100230.00;5039028;28;20365;-74
2021/04/06 10:23:10;;;;;;;17.75;5.90;;;;;;;27.28;37.38;100230.84;5033696;28;20044;-74
2021/04/06 10:25:40;;;;;;;18.10;5.68;;;;;;;26.96;38.71;100184.06;5043785;28;20040;-74
2021/04/06 10:28:09;;;;;;;18.73;5.65;;;;;;;27.07;38.44;100141.84;5031986;28;20041;-75
2021/04/06 10:30:41;;;;;;;14.73;5.95;;;;;;;27.20;37.92;100170.81;5029331;28;20049;-74
2021/04/06 10:33:10;;;;;;;18.00;7.30;;;;;;;27.24;38.94;100158.78;5029859;28;20124;-75
2021/04/06 10:35:38;;;;;;;19.85;7.63;;;;;;;27.28;39.51;100154.06;5029498;28;20500;-76
2021/04/06 10:38:07;;;;;;;15.77;5.45;;;;;;;27.31;38.19;100181.84;5036308;28;20033;-74
2021/04/06 10:40:37;;;;;;;19.15;6.03;;;;;;;27.22;37.75;100154.44;5032828;28;20099;-74
2021/04/06 10:43:16;;;;;;;13.90;5.13;;;;;;;27.08;38.17;100143.59;5033068;28;20034;-75
2021/04/06 10:45:46;;;;;;;15.10;5.20;;;;;;;26.85;38.07;100142.25;5032145;28;20099;-74
2021/04/06 10:48:16;;;;;;;16.58;5.68;;;;;;;26.82;38.52;100115.38;5034791;28;20473;-76
2021/04/06 10:50:45;;;;;;;16.70;5.95;;;;;;;26.88;38.92;100134.84;5036491;28;20521;-74
2021/04/06 10:53:23;;;;;;;18.75;6.97;;;;;;;26.85;39.65;100132.31;5039900;28;20037;-74
2021/04/06 10:55:54;;;;;;;20.00;7.35;;;;;;;26.74;40.38;100123.09;5034247;28;20044;-74
2021/04/06 10:58:24;;;;;;;18.60;5.72;;;;;;;26.96;39.26;100102.75;5038017;28;20374;-75
2021/04/06 11:01:05;;;;;;;18.95;6.63;;;;;;;27.03;39.02;100121.34;5046825;28;20530;-74
2021/04/06 11:03:49;;;;;;;19.98;6.20;;;;;;;27.21;38.73;100093.94;5050797;28;20060;-73
2021/04/06 11:06:21;;;;;;;19.58;6.80;;;;;;;27.31;38.07;100110.47;5033219;28;20551;-73
2021/04/06 11:08:50;;;;;;;17.08;6.28;;;;;;;27.44;37.97;100068.03;5036374;28;20046;-74
2021/04/06 11:11:25;;;;;;;14.13;6.22;;;;;;;27.54;36.96;100084.63;5034387;28;20075;-75
2021/04/06 11:13:55;;;;;;;25.90;7.00;;;;;;;27.69;37.36;100084.50;5041336;28;20707;-74
2021/04/06 11:16:23;;;;;;;13.40;5.32;;;;;;;27.68;37.72;100069.19;5039885;28;20099;-75
2021/04/06 11:18:59;;;;;;;18.52;6.63;;;;;;;27.62;37.19;100083.16;5036227;28;20563;-75
2021/04/06 11:21:27;;;;;;;28.00;7.50;;;;;;;27.55;36.76;100059.25;5037192;28;20037;-74
2021/04/06 11:23:54;;;;;;;13.60;5.55;;;;;;;27.45;36.30;100055.34;5040349;28;20033;-76
2021/04/06 11:26:22;;;;;;;16.25;6.32;;;;;;;27.43;36.75;100066.34;5036773;28;20045;-76
2021/04/06 11:28:49;;;;;;;18.08;5.88;;;;;;;27.53;36.94;100059.34;5041219;28;20042;-75
2021/04/06 11:31:17;;;;;;;21.98;6.43;;;;;;;27.47;35.66;100040.75;5046073;28;20125;-74
2021/04/06 11:33:44;;;;;;;19.98;7.80;;;;;;;27.45;35.80;100020.09;5038494;28;20096;-75
2021/04/06 11:36:12;;;;;;;29.33;8.57;;;;;;;27.38;35.19;100035.91;5046970;28;20041;-78
2021/04/06 11:38:40;;;;;;;12.55;5.20;;;;;;;27.09;35.86;100009.84;5036711;28;20041;-75
2021/04/06 11:41:07;;;;;;;19.33;7.15;;;;;;;27.09;35.12;100017.97;5040955;28;20048;-76